Time;durP1;ratioP1;P1;durP2;ratioP2;P2;SDS_P1;SDS_P2;PMS_P1;PMS_P2;Temp;Humidity;BMP_temperature;BMP_pressure;BME280_temperature;BME280_humidity;BME280_pressure;Samples;Min_cycle;Max_cycle;Signal;HPM_P1;HPM_P2
2023/03/12 00:01:50;;;;;;;2.92;2.83;;;;;;;;;;5093394;28;20110;-76
2023/03/12 00:04:16;;;;;;;4.03;3.65;;;;;;;;;;5075039;28;20066;-75
2023/03/12 00:06:42;;;;;;;3.05;2.92;;;;;;;;;;5054040;28;20039;-75
2023/03/12 00:09:08;;;;;;;3.42;3.17;;;;;;;;;;5085547;28;20063;-76
2023/03/12 00:11:34;;;;;;;3.10;2.90;;;;;;;;;;5054617;28;20041;-75
2023/03/12 00:14:00;;;;;;;3.70;3.40;;;;;;;;;;5054676;28;20526;-75
2023/03/12 00:16:26;;;;;;;3.38;3.17;;;;;;;;;;5054003;28;20521;-74
2023/03/12 00:18:53;;;;;;;4.10;3.83;;;;;;;;;;5074502;28;20055;-75
2023/03/12 00:21:20;;;;;;;4.10;3.80;;;;;;;;;;5092626;28;20040;-75
2023/03/12 00:23:46;;;;;;;3.95;3.65;;;;;;;;;;5074932;28;20047;-76
2023/03/12 00:26:13;;;;;;;4.40;4.00;;;;;;;;;;5092626;28;20063;-76
2023/03/12 00:28:39;;;;;;;3.28;3.08;;;;;;;;;;5074544;28;20624;-76
2023/03/12 00:31:18;;;;;;;4.97;4.68;;;;;;;;;;5054337;28;20042;-75
2023/03/12 00:33:44;;;;;;;4.18;3.88;;;;;;;;;;5054711;28;20042;-75
2023/03/12 00:36:10;;;;;;;4.57;4.28;;;;;;;;;;5021479;28;20114;-75
2023/03/12 00:38:36;;;;;;;5.93;5.53;;;;;;;;;;5054524;28;20082;-74
2023/03/12 00:41:02;;;;;;;6.57;5.95;;;;;;;;;;5053962;28;20033;-75
2023/03/12 00:43:28;;;;;;;4.43;4.13;;;;;;;;;;5037842;28;20120;-74
2023/03/12 00:45:55;;;;;;;6.95;6.35;;;;;;;;;;5072133;28;20159;-74
2023/03/12 00:48:21;;;;;;;5.78;5.30;;;;;;;;;;5071971;28;20552;-76
2023/03/12 00:50:47;;;;;;;6.30;5.80;;;;;;;;;;5053242;28;20037;-76
2023/03/12 00:53:13;;;;;;;5.10;4.70;;;;;;;;;;5067190;28;20182;-76
2023/03/12 00:55:39;;;;;;;5.50;5.10;;;;;;;;;;5092341;28;20067;-76
2023/03/12 00:58:06;;;;;;;7.40;6.65;;;;;;;;;;5056975;28;20429;-77
2023/03/12 01:00:33;;;;;;;5.95;5.55;;;;;;;;;;5074362;28;20508;-76
2023/03/12 01:02:59;;;;;;;5.22;4.80;;;;;;;;;;5061222;28;20039;-75
2023/03/12 01:05:24;;;;;;;6.35;5.75;;;;;;;;;;5071829;28;20036;-76
2023/03/12 01:07:50;;;;;;;5.95;5.45;;;;;;;;;;5054074;28;20044;-77
2023/03/12 01:10:17;;;;;;;6.32;5.72;;;;;;;;;;5036875;28;20048;-75
2023/03/12 01:12:45;;;;;;;9.70;7.53;;;;;;;;;;5071811;28;20044;-75
2023/03/12 01:15:14;;;;;;;7.05;6.35;;;;;;;;;;5071303;28;20557;-76
2023/03/12 01:17:40;;;;;;;12.40;8.57;;;;;;;;;;5037414;28;20575;-75
2023/03/12 01:20:07;;;;;;;6.38;5.88;;;;;;;;;;5071439;28;20151;-75
2023/03/12 01:22:33;;;;;;;13.02;9.85;;;;;;;;;;5053921;28;20032;-78
2023/03/12 01:24:59;;;;;;;5.70;5.20;;;;;;;;;;5053452;28;20040;-77
2023/03/12 01:27:25;;;;;;;21.45;9.88;;;;;;;;;;5071367;28;20044;-76
2023/03/12 01:29:52;;;;;;;8.00;7.28;;;;;;;;;;5053689;28;20123;-78
2023/03/12 01:32:18;;;;;;;6.85;6.20;;;;;;;;;;5036244;28;20040;-77
2023/03/12 01:34:44;;;;;;;13.68;8.07;;;;;;;;;;5037261;28;20040;-77
2023/03/12 01:37:10;;;;;;;7.22;6.53;;;;;;;;;;5020214;28;20158;-76
2023/03/12 01:39:36;;;;;;;6.57;5.97;;;;;;;;;;5020503;28;20036;-77
2023/03/12 01:42:02;;;;;;;6.95;6.10;;;;;;;;;;5070925;28;20039;-76
2023/03/12 01:44:28;;;;;;;6.85;6.20;;;;;;;;;;5052965;28;20033;-75
2023/03/12 01:46:54;;;;;;;10.18;8.50;;;;;;;;;;5070844;28;20511;-77
2023/03/12 01:49:29;;;;;;;11.45;8.77;;;;;;;;;;5070534;28;20032;-77
2023/03/12 01:52:06;;;;;;;7.07;6.40;;;;;;;;;;5038881;28;20039;-77
2023/03/12 01:54:40;;;;;;;6.68;5.95;;;;;;;;;;5056227;28;20044;-76
2023/03/12 01:57:20;;;;;;;7.60;6.78;;;;;;;;;;5072858;28;20044;-75
2023/03/12 01:59:48;;;;;;;6.05;5.55;;;;;;;;;;5073239;28;20048;-76
2023/03/12 02:02:14;;;;;;;10.77;8.55;;;;;;;;;;5072585;28;20491;-75
2023/03/12 02:04:41;;;;;;;7.82;6.68;;;;;;;;;;5072809;28;20032;-76
2023/03/12 02:07:11;;;;;;;11.10;7.80;;;;;;;;;;5072720;28;20051;-75
2023/03/12 02:09:44;;;;;;;8.35;7.25;;;;;;;;;;5055887;28;20444;-74
2023/03/12 02:12:11;;;;;;;7.57;6.82;;;;;;;;;;5055556;28;20040;-76
2023/03/12 02:14:37;;;;;;;9.32;8.02;;;;;;;;;;5072921;28;20028;-76
2023/03/12 02:17:03;;;;;;;8.20;7.40;;;;;;;;;;5090481;28;20092;-74
2023/03/12 02:19:49;;;;;;;7.40;6.78;;;;;;;;;;5055656;28;20044;-75
2023/03/12 02:22:16;;;;;;;7.05;6.45;;;;;;;;;;5071906;28;20089;-77
2023/03/12 02:25:02;;;;;;;7.90;7.10;;;;;;;;;;5056180;28;20039;-75
2023/03/12 02:27:32;;;;;;;7.10;6.40;;;;;;;;;;5072302;28;20044;-75
2023/03/12 02:29:58;;;;;;;5.82;5.32;;;;;;;;;;5056140;28;20408;-75
2023/03/12 02:32:26;;;;;;;10.13;9.20;;;;;;;;;;5072764;28;20044;-76
2023/03/12 02:34:52;;;;;;;5.20;4.85;;;;;;;;;;5056193;28;20032;-75
2023/03/12 02:37:18;;;;;;;9.90;8.88;;;;;;;;;;5073533;28;20385;-73
2023/03/12 02:39:45;;;;;;;7.85;7.05;;;;;;;;;;5055631;28;20029;-75
2023/03/12 02:42:11;;;;;;;7.03;6.30;;;;;;;;;;5069590;28;20067;-76
2023/03/12 02:44:37;;;;;;;8.75;7.95;;;;;;;;;;5070141;28;20078;-75
2023/03/12 02:47:03;;;;;;;7.10;6.45;;;;;;;;;;5068551;28;20028;-74
2023/03/12 02:49:33;;;;;;;9.60;8.63;;;;;;;;;;5052121;28;20041;-75
2023/03/12 02:51:59;;;;;;;8.73;7.07;;;;;;;;;;5072831;28;20108;-74
2023/03/12 02:54:25;;;;;;;6.72;5.75;;;;;;;;;;5054694;28;20450;-74
2023/03/12 02:56:51;;;;;;;8.07;7.40;;;;;;;;;;5071658;28;20135;-75
2023/03/12 02:59:19;;;;;;;6.85;6.35;;;;;;;;;;5089538;28;20077;-75
2023/03/12 03:01:46;;;;;;;5.45;5.05;;;;;;;;;;5038905;28;20031;-74
2023/03/12 03:04:12;;;;;;;7.00;6.50;;;;;;;;;;5089412;28;20028;-75
2023/03/12 03:06:39;;;;;;;7.13;6.57;;;;;;;;;;5089910;28;20040;-75
2023/03/12 03:09:05;;;;;;;7.82;7.18;;;;;;;;;;5071780;28;20057;-76
2023/03/12 03:11:31;;;;;;;9.05;7.00;;;;;;;;;;5071862;28;20036;-75
2023/03/12 03:13:59;;;;;;;7.28;6.60;;;;;;;;;;5071145;28;20050;-76
2023/03/12 03:16:25;;;;;;;6.22;5.68;;;;;;;;;;5071477;28;20575;-75
2023/03/12 03:18:53;;;;;;;8.32;7.50;;;;;;;;;;5055262;28;20063;-77
2023/03/12 03:21:19;;;;;;;7.97;7.25;;;;;;;;;;5088100;28;20044;-77
2023/03/12 03:23:46;;;;;;;7.60;6.97;;;;;;;;;;5089993;28;20047;-74
2023/03/12 03:26:13;;;;;;;7.35;6.65;;;;;;;;;;5056579;28;20056;-76
2023/03/12 03:28:39;;;;;;;9.35;7.85;;;;;;;;;;5075607;28;20036;-74
2023/03/12 03:31:05;;;;;;;13.57;8.57;;;;;;;;;;5041741;28;20036;-75
2023/03/12 03:33:35;;;;;;;8.32;7.55;;;;;;;;;;5072289;28;20051;-76
2023/03/12 03:36:02;;;;;;;10.10;7.30;;;;;;;;;;5055886;28;20031;-76
2023/03/12 03:38:30;;;;;;;9.40;8.63;;;;;;;;;;5055511;28;20426;-75
2023/03/12 03:40:56;;;;;;;10.13;9.13;;;;;;;;;;5072218;28;20036;-76
2023/03/12 03:43:22;;;;;;;15.48;11.60;;;;;;;;;;5088955;28;20067;-75
2023/03/12 03:45:55;;;;;;;12.00;8.73;;;;;;;;;;5071081;28;20070;-75
2023/03/12 03:48:21;;;;;;;11.90;8.68;;;;;;;;;;5089046;28;20086;-75
2023/03/12 03:50:47;;;;;;;8.20;7.40;;;;;;;;;;5089293;28;20468;-74
2023/03/12 03:53:13;;;;;;;9.40;8.02;;;;;;;;;;5070982;28;20048;-76
2023/03/12 03:55:40;;;;;;;17.40;11.77;;;;;;;;;;5071106;28;20028;-75
2023/03/12 03:58:07;;;;;;;9.02;7.97;;;;;;;;;;5054739;28;20411;-76
2023/03/12 04:00:33;;;;;;;9.88;7.72;;;;;;;;;;5054478;28;20089;-75
2023/03/12 04:02:59;;;;;;;12.90;8.93;;;;;;;;;;5071222;28;20048;-75
2023/03/12 04:05:26;;;;;;;22.35;12.15;;;;;;;;;;5054289;28;20055;-76
2023/03/12 04:07:53;;;;;;;8.60;7.78;;;;;;;;;;5050731;28;20131;-75
2023/03/12 04:10:22;;;;;;;9.55;8.63;;;;;;;;;;5040183;28;20494;-76
2023/03/12 04:12:48;;;;;;;14.23;10.85;;;;;;;;;;5070768;28;20527;-75
2023/03/12 04:15:14;;;;;;;14.88;11.25;;;;;;;;;;5089051;28;20503;-74
2023/03/12 04:17:40;;;;;;;18.85;12.23;;;;;;;;;;5070217;28;20043;-73
2023/03/12 04:20:08;;;;;;;17.00;9.85;;;;;;;;;;5050365;28;20598;-73
2023/03/12 04:22:34;;;;;;;11.13;10.07;;;;;;;;;;5034014;28;20044;-72
2023/03/12 04:25:01;;;;;;;14.32;10.98;;;;;;;;;;5068877;28;20033;-73
2023/03/12 04:27:27;;;;;;;12.63;9.10;;;;;;;;;;5054113;28;20139;-74
2023/03/12 04:29:53;;;;;;;9.60;8.52;;;;;;;;;;5054367;28;20044;-73
2023/03/12 04:32:19;;;;;;;14.10;11.27;;;;;;;;;;5043256;28;20044;-72
2023/03/12 04:34:45;;;;;;;11.27;9.98;;;;;;;;;;5074218;28;20550;-73
2023/03/12 04:37:13;;;;;;;11.98;8.13;;;;;;;;;;5073852;28;20036;-72
2023/03/12 04:39:40;;;;;;;13.18;11.57;;;;;;;;;;5074406;28;20036;-73
2023/03/12 04:42:07;;;;;;;18.50;12.52;;;;;;;;;;5074279;28;20032;-74
2023/03/12 04:44:34;;;;;;;16.65;8.55;;;;;;;;;;5092179;28;20040;-73
2023/03/12 04:47:00;;;;;;;14.45;12.35;;;;;;;;;;5057557;28;20036;-74
2023/03/12 04:49:26;;;;;;;12.02;10.05;;;;;;;;;;5092306;28;20046;-74
2023/03/12 04:51:53;;;;;;;14.65;10.48;;;;;;;;;;5074216;28;20133;-74
2023/03/12 04:54:21;;;;;;;15.55;9.23;;;;;;;;;;5073693;28;20040;-73
2023/03/12 04:56:51;;;;;;;18.33;14.75;;;;;;;;;;5073484;28;20625;-73
2023/03/12 04:59:19;;;;;;;15.13;10.85;;;;;;;;;;5055238;28;20040;-74
2023/03/12 05:01:46;;;;;;;20.05;12.23;;;;;;;;;;5058678;28;20036;-74
2023/03/12 05:04:18;;;;;;;11.25;10.07;;;;;;;;;;5058546;28;20039;-73
2023/03/12 05:06:44;;;;;;;14.40;10.50;;;;;;;;;;5075763;28;20086;-72
2023/03/12 05:09:10;;;;;;;21.45;14.30;;;;;;;;;;5055512;28;20044;-73
2023/03/12 05:11:37;;;;;;;9.75;8.18;;;;;;;;;;5053963;28;20123;-73
2023/03/12 05:14:03;;;;;;;15.70;11.32;;;;;;;;;;5053591;28;20044;-73
2023/03/12 05:16:31;;;;;;;13.27;10.75;;;;;;;;;;5053163;28;20488;-74
2023/03/12 05:18:57;;;;;;;8.40;7.63;;;;;;;;;;5053112;28;20576;-73
2023/03/12 05:21:24;;;;;;;17.30;9.75;;;;;;;;;;5053260;28;20043;-72
2023/03/12 05:23:53;;;;;;;16.95;10.95;;;;;;;;;;5053505;28;20120;-73
2023/03/12 05:26:20;;;;;;;19.65;13.07;;;;;;;;;;5070715;28;20035;-73
2023/03/12 05:28:46;;;;;;;20.63;14.05;;;;;;;;;;5053360;28;20041;-73
2023/03/12 05:31:13;;;;;;;13.77;11.80;;;;;;;;;;5070998;28;20043;-74
2023/03/12 05:33:40;;;;;;;11.80;9.15;;;;;;;;;;5053238;28;20041;-74
2023/03/12 05:36:07;;;;;;;21.38;12.48;;;;;;;;;;5052574;28;20025;-74
2023/03/12 05:38:33;;;;;;;19.17;12.57;;;;;;;;;;5069557;28;20055;-74
2023/03/12 05:41:00;;;;;;;17.73;11.15;;;;;;;;;;5071048;28;20044;-73
2023/03/12 05:43:29;;;;;;;23.38;14.60;;;;;;;;;;5052892;28;20179;-73
2023/03/12 05:45:59;;;;;;;18.88;11.68;;;;;;;;;;5053264;28;20048;-72
2023/03/12 05:48:26;;;;;;;20.88;13.48;;;;;;;;;;5052740;28;20550;-72
2023/03/12 05:50:53;;;;;;;19.83;11.52;;;;;;;;;;5052780;28;20041;-73
2023/03/12 05:53:19;;;;;;;22.58;13.63;;;;;;;;;;5084696;28;20046;-73
2023/03/12 05:55:47;;;;;;;27.63;15.80;;;;;;;;;;5072631;28;20503;-73
2023/03/12 05:58:13;;;;;;;25.23;14.52;;;;;;;;;;5055907;28;20071;-73
2023/03/12 06:00:40;;;;;;;21.52;13.57;;;;;;;;;;5090560;28;20068;-73
2023/03/12 06:03:07;;;;;;;23.73;13.98;;;;;;;;;;5056084;28;20032;-72
2023/03/12 06:05:34;;;;;;;22.42;14.20;;;;;;;;;;5089273;28;20040;-72
2023/03/12 06:08:00;;;;;;;32.05;16.67;;;;;;;;;;5090528;28;20112;-72
2023/03/12 06:10:26;;;;;;;18.98;13.07;;;;;;;;;;5089188;28;20411;-73
2023/03/12 06:12:53;;;;;;;29.25;15.73;;;;;;;;;;5089193;28;20040;-74
2023/03/12 06:15:19;;;;;;;21.73;11.75;;;;;;;;;;5090286;28;20043;-73
2023/03/12 06:17:47;;;;;;;15.93;11.23;;;;;;;;;;5089136;28;20078;-74
2023/03/12 06:20:14;;;;;;;14.57;11.55;;;;;;;;;;5101865;28;20588;-73
2023/03/12 06:22:40;;;;;;;25.70;13.70;;;;;;;;;;5075244;28;20529;-73
2023/03/12 06:25:06;;;;;;;27.38;15.57;;;;;;;;;;5092489;28;20040;-73
2023/03/12 06:27:33;;;;;;;23.73;16.70;;;;;;;;;;5092146;28;20024;-72
2023/03/12 06:29:59;;;;;;;30.48;17.10;;;;;;;;;;5110542;28;20044;-72
2023/03/12 06:32:24;;;;;;;23.13;13.93;;;;;;;;;;5110057;28;20043;-72
2023/03/12 06:34:50;;;;;;;28.52;16.27;;;;;;;;;;5092547;28;20032;-72
2023/03/12 06:37:17;;;;;;;34.38;16.77;;;;;;;;;;5110433;28;20036;-73
2023/03/12 06:39:43;;;;;;;31.85;17.48;;;;;;;;;;5110639;28;20038;-72
2023/03/12 06:42:09;;;;;;;25.55;16.02;;;;;;;;;;5075269;28;20055;-72
2023/03/12 06:44:35;;;;;;;35.97;17.08;;;;;;;;;;5075412;28;20134;-73
2023/03/12 06:47:01;;;;;;;36.00;19.55;;;;;;;;;;5092107;28;20042;-72
2023/03/12 06:49:31;;;;;;;22.38;14.75;;;;;;;;;;5091103;28;20053;-72
2023/03/12 06:51:56;;;;;;;39.80;19.00;;;;;;;;;;5107155;28;20119;-72
2023/03/12 06:54:22;;;;;;;21.25;14.80;;;;;;;;;;5071489;28;20169;-73
2023/03/12 06:56:48;;;;;;;38.33;18.60;;;;;;;;;;5072266;28;20043;-72
2023/03/12 06:59:15;;;;;;;28.63;17.33;;;;;;;;;;5090653;28;20452;-72
2023/03/12 07:01:41;;;;;;;40.72;16.45;;;;;;;;;;5089943;28;20115;-72
2023/03/12 07:04:07;;;;;;;35.92;20.05;;;;;;;;;;5090711;28;20403;-72
2023/03/12 07:06:33;;;;;;;27.48;14.02;;;;;;;;;;5089606;28;20046;-71
2023/03/12 07:08:59;;;;;;;30.00;18.00;;;;;;;;;;5049150;28;20056;-77
2023/03/12 07:11:25;;;;;;;32.95;18.20;;;;;;;;;;5084542;28;20064;-82
2023/03/12 07:13:51;;;;;;;32.97;15.85;;;;;;;;;;5068627;28;20508;-82
2023/03/12 07:16:17;;;;;;;13.55;12.18;;;;;;;;;;5066597;28;20058;-80
2023/03/12 07:18:43;;;;;;;19.30;12.15;;;;;;;;;;5090069;28;20115;-82
2023/03/12 07:21:09;;;;;;;24.83;15.35;;;;;;;;;;5087359;28;20078;-83
2023/03/12 07:23:35;;;;;;;18.23;13.82;;;;;;;;;;5090019;28;20005;-82
2023/03/12 07:26:02;;;;;;;27.77;14.57;;;;;;;;;;5093518;28;20023;-84
2023/03/12 07:28:28;;;;;;;36.58;17.00;;;;;;;;;;5100011;28;20024;-81
2023/03/12 07:30:58;;;;;;;32.05;15.88;;;;;;;;;;5083847;28;20059;-82
2023/03/12 07:33:24;;;;;;;38.63;18.80;;;;;;;;;;5083909;28;20047;-82
2023/03/12 07:35:50;;;;;;;28.70;15.85;;;;;;;;;;5083910;28;20032;-82
2023/03/12 07:38:17;;;;;;;38.20;21.60;;;;;;;;;;5069032;28;20580;-82
2023/03/12 07:40:42;;;;;;;33.20;18.58;;;;;;;;;;5073833;28;20034;-81
2023/03/12 07:43:11;;;;;;;27.63;15.13;;;;;;;;;;5079112;28;20419;-82
2023/03/12 07:45:39;;;;;;;45.65;23.00;;;;;;;;;;5089959;28;20020;-81
2023/03/12 07:48:05;;;;;;;26.23;15.98;;;;;;;;;;5085771;28;20021;-82
2023/03/12 07:50:31;;;;;;;28.80;16.92;;;;;;;;;;5084556;28;20032;-83
2023/03/12 07:52:57;;;;;;;38.72;20.23;;;;;;;;;;5084576;28;20047;-84
2023/03/12 07:55:23;;;;;;;31.33;16.02;;;;;;;;;;5079414;28;20058;-80
2023/03/12 07:57:49;;;;;;;35.28;16.73;;;;;;;;;;5078073;28;20047;-82
2023/03/12 08:00:15;;;;;;;44.30;21.65;;;;;;;;;;5091514;28;20052;-84
2023/03/12 08:02:42;;;;;;;39.22;19.70;;;;;;;;;;5102992;28;20037;-81
2023/03/12 08:05:08;;;;;;;55.30;25.25;;;;;;;;;;5071294;28;20048;-81
2023/03/12 08:07:34;;;;;;;40.53;20.58;;;;;;;;;;5089518;28;20086;-83
2023/03/12 08:10:00;;;;;;;21.60;13.50;;;;;;;;;;5089003;28;20028;-86
2023/03/12 08:12:26;;;;;;;20.73;13.95;;;;;;;;;;5082814;28;20040;-82
2023/03/12 08:14:52;;;;;;;14.35;12.05;;;;;;;;;;5101247;28;20062;-82
2023/03/12 08:17:19;;;;;;;25.50;15.25;;;;;;;;;;5070748;28;20042;-78
2023/03/12 08:19:45;;;;;;;33.53;17.70;;;;;;;;;;5076289;28;20686;-80
2023/03/12 08:22:11;;;;;;;29.15;18.40;;;;;;;;;;5074432;28;20052;-81
2023/03/12 10:35:13;;;;;;;6.55;6.10;;;;;;;;;;4364314;26;20630;-78
2023/03/12 10:37:44;;;;;;;6.90;6.40;;;;;;;;;;5089809;28;20040;-80
2023/03/12 10:40:13;;;;;;;5.82;5.43;;;;;;;;;;5072729;28;20036;-78
2023/03/12 10:42:39;;;;;;;5.68;5.38;;;;;;;;;;5072429;28;20046;-80
2023/03/12 10:45:08;;;;;;;6.10;5.70;;;;;;;;;;5069522;28;20082;-81
2023/03/12 10:47:38;;;;;;;6.30;5.80;;;;;;;;;;5086584;28;20035;-79
2023/03/12 10:50:17;;;;;;;6.50;6.03;;;;;;;;;;5069218;28;20028;-80
2023/03/12 10:52:44;;;;;;;7.40;6.82;;;;;;;;;;5072114;28;20075;-80
2023/03/12 10:55:20;;;;;;;5.75;5.35;;;;;;;;;;5089319;28;20533;-78
2023/03/12 10:57:46;;;;;;;6.93;5.03;;;;;;;;;;5089518;28;20093;-79
2023/03/12 11:00:20;;;;;;;7.00;6.50;;;;;;;;;;5089965;28;20476;-81
2023/03/12 11:02:46;;;;;;;7.65;6.63;;;;;;;;;;5088045;28;20020;-85
2023/03/12 11:05:19;;;;;;;5.75;5.35;;;;;;;;;;5094386;28;20028;-83
2023/03/12 11:07:45;;;;;;;6.15;5.57;;;;;;;;;;5058100;28;20104;-82
2023/03/12 14:39:38;;;;;;;3.22;2.88;;;;;;;;;;6376303;22;20072;-84
2023/03/12 14:42:05;;;;;;;2.33;2.22;;;;;;;;;;6268103;22;20023;-84
2023/03/12 14:44:32;;;;;;;1.90;1.85;;;;;;;;;;6265757;22;20011;-84
2023/03/12 14:47:02;;;;;;;2.67;2.47;;;;;;;;;;6257957;22;20118;-83
2023/03/12 14:49:28;;;;;;;2.45;2.35;;;;;;;;;;6311865;22;20038;-83
2023/03/12 14:51:54;;;;;;;2.15;2.05;;;;;;;;;;6307862;22;20014;-82
2023/03/12 14:54:22;;;;;;;1.83;1.77;;;;;;;;;;6311789;22;20086;-84
2023/03/12 14:56:49;;;;;;;1.67;1.67;;;;;;;;;;6323413;22;20043;-84
2023/03/12 14:59:22;;;;;;;1.30;1.30;;;;;;;;;;6330755;22;20451;-86
2023/03/12 15:01:48;;;;;;;1.40;1.40;;;;;;;;;;6305610;22;20009;-86
2023/03/12 16:14:18;;;;;;;2.67;2.53;;;;;;;;;;6312702;22;20026;-84
2023/03/12 16:16:44;;;;;;;4.03;3.83;;;;;;;;;;6305948;22;20350;-84
2023/03/12 16:19:11;;;;;;;3.33;3.10;;;;;;;;;;6362496;22;20014;-85
2023/03/12 16:21:38;;;;;;;3.45;3.25;;;;;;;;;;6313563;22;20006;-85
2023/03/12 17:37:14;;;;;;;5.10;4.70;;;;;;;;;;6340036;22;20029;-83
2023/03/12 17:39:40;;;;;;;5.85;5.35;;;;;;;;;;6309142;22;20022;-83
2023/03/12 17:42:06;;;;;;;4.97;4.68;;;;;;;;;;6283146;22;20007;-83
2023/03/12 17:44:33;;;;;;;5.95;4.97;;;;;;;;;;6304561;22;20033;-82
2023/03/12 17:47:00;;;;;;;4.88;4.57;;;;;;;;;;6307243;22;20514;-82
2023/03/12 17:49:27;;;;;;;4.78;4.47;;;;;;;;;;6334065;22;20105;-82
2023/03/12 17:51:53;;;;;;;6.15;5.15;;;;;;;;;;6336343;22;20038;-82
2023/03/12 17:54:19;;;;;;;4.65;4.28;;;;;;;;;;6336067;22;20084;-81
2023/03/12 17:56:46;;;;;;;6.40;5.90;;;;;;;;;;6309589;22;20106;-77
2023/03/12 17:59:12;;;;;;;5.28;4.97;;;;;;;;;;6305501;22;20015;-80
2023/03/12 18:01:38;;;;;;;5.28;4.88;;;;;;;;;;6332371;22;20404;-79
2023/03/12 18:04:04;;;;;;;4.47;4.18;;;;;;;;;;6305940;22;20011;-81
2023/03/12 18:06:30;;;;;;;4.50;4.20;;;;;;;;;;6334694;22;20089;-79
2023/03/12 18:08:56;;;;;;;5.03;3.53;;;;;;;;;;6331084;22;20057;-79
2023/03/12 18:11:22;;;;;;;5.32;4.93;;;;;;;;;;6333484;22;20440;-81
2023/03/12 18:13:48;;;;;;;4.90;4.50;;;;;;;;;;6335222;22;20021;-80
2023/03/12 18:16:14;;;;;;;5.97;4.75;;;;;;;;;;6334941;22;20007;-79
2023/03/12 18:18:39;;;;;;;4.28;3.97;;;;;;;;;;6335081;22;20102;-80
2023/03/12 18:21:06;;;;;;;4.30;4.00;;;;;;;;;;6333736;22;20010;-83
2023/03/12 18:23:32;;;;;;;4.18;3.88;;;;;;;;;;6343654;22;20089;-83
2023/03/12 18:25:58;;;;;;;5.00;4.60;;;;;;;;;;6343849;22;20355;-83
2023/03/12 18:28:24;;;;;;;4.20;3.90;;;;;;;;;;6340043;22;20018;-82
2023/03/12 18:30:50;;;;;;;5.07;4.78;;;;;;;;;;6311780;22;20010;-82
2023/03/12 18:33:16;;;;;;;4.20;3.90;;;;;;;;;;6312268;22;20015;-81
2023/03/12 18:35:42;;;;;;;4.88;4.53;;;;;;;;;;6317968;22;20067;-82
2023/03/12 18:38:08;;;;;;;4.30;3.95;;;;;;;;;;6341057;22;20045;-81
2023/03/12 18:40:35;;;;;;;5.65;5.15;;;;;;;;;;6342506;22;20013;-83
2023/03/12 18:43:01;;;;;;;3.70;3.50;;;;;;;;;;6313573;22;20011;-83
2023/03/12 18:45:27;;;;;;;4.05;3.72;;;;;;;;;;6317669;22;20015;-84
2023/03/12 18:47:53;;;;;;;3.90;3.67;;;;;;;;;;6316943;22;20059;-82
2023/03/12 18:50:20;;;;;;;4.10;3.90;;;;;;;;;;6340907;22;20015;-81
2023/03/12 18:52:46;;;;;;;5.00;3.30;;;;;;;;;;6352357;22;20007;-84
2023/03/12 18:55:14;;;;;;;3.22;3.00;;;;;;;;;;6362889;22;20005;-86
2023/03/12 19:00:22;;;;;;;3.35;3.15;;;;;;;;;;6288598;22;20022;-84
2023/03/12 19:02:48;;;;;;;3.65;3.45;;;;;;;;;;6312807;22;20447;-79
2023/03/12 19:05:14;;;;;;;2.80;2.60;;;;;;;;;;6307465;22;20098;-83
2023/03/12 19:07:41;;;;;;;2.95;2.85;;;;;;;;;;6317538;22;20050;-83
2023/03/12 19:12:55;;;;;;;2.20;2.10;;;;;;;;;;6277372;22;20015;-86
2023/03/12 19:18:11;;;;;;;2.67;2.47;;;;;;;;;;6324543;22;20012;-84
2023/03/12 19:20:37;;;;;;;2.58;2.47;;;;;;;;;;6330926;22;19996;-83
2023/03/12 19:23:03;;;;;;;2.80;2.60;;;;;;;;;;6311425;22;20026;-79
2023/03/12 19:25:30;;;;;;;2.90;2.75;;;;;;;;;;6306019;22;20008;-79
2023/03/12 19:27:56;;;;;;;2.20;2.10;;;;;;;;;;6301645;22;20011;-78
2023/03/12 19:30:25;;;;;;;3.25;3.05;;;;;;;;;;6301481;22;20815;-81
2023/03/12 19:32:52;;;;;;;2.83;2.63;;;;;;;;;;6302845;22;20062;-81
2023/03/12 19:35:18;;;;;;;2.63;2.42;;;;;;;;;;6303380;22;20007;-79
2023/03/12 19:37:43;;;;;;;2.13;2.03;;;;;;;;;;6303576;22;20103;-81
2023/03/12 19:40:12;;;;;;;2.42;2.33;;;;;;;;;;6304454;22;20088;-80
2023/03/12 19:42:38;;;;;;;3.30;3.10;;;;;;;;;;6304890;22;20011;-80
2023/03/12 19:45:05;;;;;;;2.67;2.50;;;;;;;;;;6305058;22;20391;-80
2023/03/12 19:47:32;;;;;;;2.58;2.47;;;;;;;;;;6303586;22;20018;-80
2023/03/12 19:49:58;;;;;;;2.15;2.05;;;;;;;;;;6276453;22;20019;-76
2023/03/12 19:52:24;;;;;;;2.58;2.47;;;;;;;;;;6310562;22;20017;-81
2023/03/12 19:54:50;;;;;;;2.47;2.30;;;;;;;;;;6311084;22;20035;-81
2023/03/12 19:57:16;;;;;;;2.15;2.05;;;;;;;;;;6312085;22;20006;-81
2023/03/12 19:59:43;;;;;;;2.47;2.38;;;;;;;;;;6308454;22;20015;-82
2023/03/12 20:02:12;;;;;;;2.65;2.55;;;;;;;;;;6305731;22;20017;-78
2023/03/12 20:04:38;;;;;;;2.50;2.40;;;;;;;;;;6275176;22;20011;-76
2023/03/12 20:07:04;;;;;;;2.10;2.03;;;;;;;;;;6302886;22;20113;-77
2023/03/12 20:09:30;;;;;;;1.88;1.77;;;;;;;;;;6302784;22;20516;-77
2023/03/12 20:11:56;;;;;;;2.05;1.95;;;;;;;;;;6303069;22;20011;-78
2023/03/12 20:14:23;;;;;;;2.22;2.13;;;;;;;;;;6302201;22;20023;-77
2023/03/12 20:16:50;;;;;;;2.08;1.98;;;;;;;;;;6275434;22;20034;-78
2023/03/12 20:19:16;;;;;;;2.30;2.22;;;;;;;;;;6324180;22;20378;-77
2023/03/12 20:21:42;;;;;;;2.63;2.50;;;;;;;;;;6337846;22;20041;-78
2023/03/12 20:24:09;;;;;;;2.33;2.13;;;;;;;;;;6342170;22;20010;-77
2023/03/12 20:26:38;;;;;;;2.50;2.30;;;;;;;;;;6347093;22;20007;-77
2023/03/12 20:29:04;;;;;;;2.40;2.30;;;;;;;;;;6350040;22;20178;-77
2023/03/12 20:31:31;;;;;;;1.90;1.80;;;;;;;;;;6350575;22;20041;-77
2023/03/12 20:33:57;;;;;;;2.40;2.00;;;;;;;;;;6321885;22;20451;-77
2023/03/12 20:36:22;;;;;;;2.20;2.10;;;;;;;;;;6350211;22;20022;-78
2023/03/12 20:38:49;;;;;;;2.28;2.17;;;;;;;;;;6348388;22;20026;-77
2023/03/12 20:41:15;;;;;;;2.60;2.50;;;;;;;;;;6320995;22;20093;-77
2023/03/12 20:43:41;;;;;;;2.22;2.13;;;;;;;;;;6342586;22;20010;-78
2023/03/12 20:46:07;;;;;;;2.78;2.40;;;;;;;;;;6309313;22;20003;-76
2023/03/12 20:48:33;;;;;;;2.45;2.30;;;;;;;;;;6335747;22;20526;-77
2023/03/12 20:50:59;;;;;;;2.05;1.95;;;;;;;;;;6336728;22;20034;-77
2023/03/12 20:53:26;;;;;;;2.40;2.08;;;;;;;;;;6336665;22;20068;-77
2023/03/12 20:55:52;;;;;;;2.38;2.28;;;;;;;;;;6308666;22;20006;-78
2023/03/12 20:58:18;;;;;;;2.05;1.95;;;;;;;;;;6336129;22;20093;-76
2023/03/12 21:00:44;;;;;;;2.00;1.90;;;;;;;;;;6283034;22;20015;-77
2023/03/12 21:03:11;;;;;;;2.10;2.00;;;;;;;;;;6336654;22;20015;-77
2023/03/12 21:05:37;;;;;;;2.70;2.60;;;;;;;;;;6309052;22;20006;-77
2023/03/12 21:08:03;;;;;;;1.60;1.60;;;;;;;;;;6336616;22;20015;-76
2023/03/12 21:10:29;;;;;;;4.47;2.47;;;;;;;;;;6335992;22;20007;-77
2023/03/12 21:12:56;;;;;;;2.22;2.05;;;;;;;;;;6336208;22;20474;-78
2023/03/12 21:15:22;;;;;;;4.47;2.08;;;;;;;;;;6336488;22;20011;-78
2023/03/12 21:17:48;;;;;;;2.03;1.92;;;;;;;;;;6335804;22;20022;-78
2023/03/12 21:20:17;;;;;;;1.42;1.42;;;;;;;;;;6336555;22;20037;-78
2023/03/12 21:22:45;;;;;;;2.28;2.17;;;;;;;;;;6335697;22;20015;-78
2023/03/12 21:25:11;;;;;;;2.53;1.70;;;;;;;;;;6336332;22;20084;-79
2023/03/12 21:27:38;;;;;;;1.80;1.80;;;;;;;;;;6282531;22;20010;-77
2023/03/12 21:30:04;;;;;;;2.30;2.20;;;;;;;;;;6336716;22;20407;-77
2023/03/12 21:32:30;;;;;;;1.65;1.65;;;;;;;;;;6308002;22;20042;-77
2023/03/12 21:34:57;;;;;;;1.75;1.70;;;;;;;;;;6308309;22;20518;-78
2023/03/12 21:37:23;;;;;;;3.90;1.95;;;;;;;;;;6308121;22;20506;-77
2023/03/12 21:39:49;;;;;;;1.90;1.88;;;;;;;;;;6335472;22;20011;-78
2023/03/12 21:42:16;;;;;;;2.22;2.13;;;;;;;;;;6308009;22;20006;-77
2023/03/12 21:44:42;;;;;;;1.52;1.52;;;;;;;;;;6335663;22;20036;-78
2023/03/12 21:47:08;;;;;;;2.20;1.90;;;;;;;;;;6336049;22;20598;-76
2023/03/12 21:49:34;;;;;;;1.67;1.67;;;;;;;;;;6336324;22;20018;-78
2023/03/12 21:52:03;;;;;;;1.90;1.80;;;;;;;;;;6308654;22;20011;-78
2023/03/12 21:54:31;;;;;;;1.85;1.85;;;;;;;;;;6282720;22;20018;-78
2023/03/12 21:56:57;;;;;;;1.77;1.70;;;;;;;;;;6335760;22;20471;-79
2023/03/12 21:59:24;;;;;;;1.70;1.70;;;;;;;;;;6335786;22;20083;-78
2023/03/12 22:01:50;;;;;;;1.67;1.58;;;;;;;;;;6335276;22;20235;-77
2023/03/12 22:04:16;;;;;;;2.00;1.90;;;;;;;;;;6335992;22;20019;-79
2023/03/12 22:06:42;;;;;;;1.52;1.52;;;;;;;;;;6308349;22;20032;-79
2023/03/12 22:09:08;;;;;;;1.85;1.75;;;;;;;;;;6282732;22;20034;-79
2023/03/12 22:11:34;;;;;;;2.55;2.25;;;;;;;;;;6335362;22;20011;-80
2023/03/12 22:14:00;;;;;;;2.40;2.20;;;;;;;;;;6335803;22;20011;-78
2023/03/12 22:16:26;;;;;;;2.13;2.03;;;;;;;;;;6308135;22;20006;-78
2023/03/12 22:18:52;;;;;;;2.45;2.35;;;;;;;;;;6307791;22;20019;-78
2023/03/12 22:21:20;;;;;;;1.80;1.70;;;;;;;;;;6308152;22;20053;-78
2023/03/12 22:23:46;;;;;;;1.70;1.60;;;;;;;;;;6335221;22;20011;-78
2023/03/12 22:26:12;;;;;;;1.65;1.65;;;;;;;;;;6308333;22;20509;-79
2023/03/12 22:28:39;;;;;;;3.15;2.22;;;;;;;;;;6308438;22;20106;-77
2023/03/12 22:31:06;;;;;;;1.75;1.73;;;;;;;;;;6308524;22;20007;-78
2023/03/12 22:33:34;;;;;;;1.63;1.63;;;;;;;;;;6282121;22;20362;-78
2023/03/12 22:36:03;;;;;;;1.63;1.58;;;;;;;;;;6335602;22;20018;-78
2023/03/12 22:38:29;;;;;;;1.92;1.85;;;;;;;;;;6308058;22;20022;-78
2023/03/12 22:40:55;;;;;;;2.05;1.63;;;;;;;;;;6335820;22;20056;-79
2023/03/12 22:43:21;;;;;;;1.38;1.38;;;;;;;;;;6308084;22;20006;-79
2023/03/12 22:45:51;;;;;;;1.83;1.73;;;;;;;;;;6335946;22;20011;-77